Terminal Aerodrome Forecast
Issued by NWS

Home | Current Version | Previous Version | Text Only | Print | Product List | Glossary On
Versions: 1 2 3 4 5 6 7 8 9 10 11 12 13 14 15 16 17
000
FTUS46 KLOX 271600 AAA
TAFWJF
TAF AMD
KWJF 271607Z 2716/2812 09012G20KT P6SM SKC
     FM271800 06015G25KT P6SM SKC
     FM272200 07008KT P6SM SKC
     FM280200 28010KT P6SM SKC
     FM281100 VRB05KT P6SM SKC=

USA.gov is the U.S. government's official web portal to all federal, state and local government web resources and services.